sensor_id;sensor_type;location;lat;lon;timestamp;P1;durP1;ratioP1;P2;durP2;ratioP2
71902;SDS011;59778;50.310;18.780;2022-09-09T00:17:57;15.60;;;8.87;;
71902;SDS011;59778;50.310;18.780;2022-09-09T00:33:10;15.67;;;8.57;;
71902;SDS011;59778;50.310;18.780;2022-09-09T00:49:24;40.07;;;12.83;;
71902;SDS011;59778;50.310;18.780;2022-09-09T01:04:32;25.53;;;13.00;;
71902;SDS011;59778;50.310;18.780;2022-09-09T01:20:10;34.23;;;16.10;;
71902;SDS011;59778;50.310;18.780;2022-09-09T01:51:28;33.57;;;17.73;;
71902;SDS011;59778;50.310;18.780;2022-09-09T02:06:49;33.97;;;18.03;;
71902;SDS011;59778;50.310;18.780;2022-09-09T02:22:17;32.97;;;17.43;;
71902;SDS011;59778;50.310;18.780;2022-09-09T02:37:42;34.33;;;17.40;;
71902;SDS011;59778;50.310;18.780;2022-09-09T02:53:09;30.87;;;15.20;;
71902;SDS011;59778;50.310;18.780;2022-09-09T03:08:37;22.90;;;13.83;;
71902;SDS011;59778;50.310;18.780;2022-09-09T03:23:58;21.67;;;12.43;;
71902;SDS011;59778;50.310;18.780;2022-09-09T03:39:19;45.80;;;14.43;;
71902;SDS011;59778;50.310;18.780;2022-09-09T03:54:40;24.20;;;12.73;;
71902;SDS011;59778;50.310;18.780;2022-09-09T04:10:03;20.93;;;12.37;;
71902;SDS011;59778;50.310;18.780;2022-09-09T04:25:24;18.57;;;11.03;;
71902;SDS011;59778;50.310;18.780;2022-09-09T04:40:46;60.17;;;19.33;;
71902;SDS011;59778;50.310;18.780;2022-09-09T04:56:09;54.53;;;21.10;;
71902;SDS011;59778;50.310;18.780;2022-09-09T05:11:33;21.87;;;13.50;;
71902;SDS011;59778;50.310;18.780;2022-09-09T05:26:57;36.60;;;15.90;;
71902;SDS011;59778;50.310;18.780;2022-09-09T05:42:20;26.13;;;17.10;;
71902;SDS011;59778;50.310;18.780;2022-09-09T05:57:41;25.83;;;15.77;;
71902;SDS011;59778;50.310;18.780;2022-09-09T06:13:03;19.40;;;12.10;;
71902;SDS011;59778;50.310;18.780;2022-09-09T06:28:24;13.97;;;8.67;;
71902;SDS011;59778;50.310;18.780;2022-09-09T06:43:46;14.90;;;8.80;;
71902;SDS011;59778;50.310;18.780;2022-09-09T06:59:07;11.37;;;6.90;;
71902;SDS011;59778;50.310;18.780;2022-09-09T07:14:30;9.00;;;5.33;;
71902;SDS011;59778;50.310;18.780;2022-09-09T07:29:51;8.93;;;4.70;;
71902;SDS011;59778;50.310;18.780;2022-09-09T07:45:12;6.63;;;4.00;;
71902;SDS011;59778;50.310;18.780;2022-09-09T08:00:33;8.30;;;3.23;;
71902;SDS011;59778;50.310;18.780;2022-09-09T08:15:54;7.33;;;3.10;;
71902;SDS011;59778;50.310;18.780;2022-09-09T08:31:16;7.50;;;4.10;;
71902;SDS011;59778;50.310;18.780;2022-09-09T08:46:46;6.37;;;3.50;;
71902;SDS011;59778;50.310;18.780;2022-09-09T09:17:52;6.13;;;3.40;;
71902;SDS011;59778;50.310;18.780;2022-09-09T09:33:27;5.37;;;3.03;;
71902;SDS011;59778;50.310;18.780;2022-09-09T09:49:02;5.53;;;2.50;;
71902;SDS011;59778;50.310;18.780;2022-09-09T10:04:26;4.80;;;2.50;;
71902;SDS011;59778;50.310;18.780;2022-09-09T10:35:54;4.00;;;2.10;;
71902;SDS011;59778;50.310;18.780;2022-09-09T10:51:34;4.67;;;2.20;;
71902;SDS011;59778;50.310;18.780;2022-09-09T11:07:08;2.47;;;1.40;;
71902;SDS011;59778;50.310;18.780;2022-09-09T11:22:34;5.43;;;1.80;;
71902;SDS011;59778;50.310;18.780;2022-09-09T11:38:05;5.87;;;2.07;;
71902;SDS011;59778;50.310;18.780;2022-09-09T12:09:28;5.57;;;2.00;;
71902;SDS011;59778;50.310;18.780;2022-09-09T12:40:32;4.40;;;1.90;;
71902;SDS011;59778;50.310;18.780;2022-09-09T12:55:57;2.93;;;1.40;;
71902;SDS011;59778;50.310;18.780;2022-09-09T13:11:21;2.77;;;1.40;;
71902;SDS011;59778;50.310;18.780;2022-09-09T13:26:53;3.27;;;1.70;;
71902;SDS011;59778;50.310;18.780;2022-09-09T13:42:27;2.87;;;1.43;;
71902;SDS011;59778;50.310;18.780;2022-09-09T14:13:16;4.57;;;1.83;;
71902;SDS011;59778;50.310;18.780;2022-09-09T14:28:37;2.60;;;1.60;;
71902;SDS011;59778;50.310;18.780;2022-09-09T14:43:58;4.80;;;1.60;;
71902;SDS011;59778;50.310;18.780;2022-09-09T14:59:20;3.27;;;1.60;;
71902;SDS011;59778;50.310;18.780;2022-09-09T15:14:42;5.73;;;1.47;;
71902;SDS011;59778;50.310;18.780;2022-09-09T15:30:04;7.27;;;1.67;;
71902;SDS011;59778;50.310;18.780;2022-09-09T15:45:26;6.03;;;2.47;;
71902;SDS011;59778;50.310;18.780;2022-09-09T16:00:50;18.03;;;5.10;;
71902;SDS011;59778;50.310;18.780;2022-09-09T16:16:12;9.93;;;2.97;;
71902;SDS011;59778;50.310;18.780;2022-09-09T16:31:34;6.27;;;1.90;;
71902;SDS011;59778;50.310;18.780;2022-09-09T16:46:55;5.83;;;2.30;;
71902;SDS011;59778;50.310;18.780;2022-09-09T17:02:17;10.97;;;2.73;;
71902;SDS011;59778;50.310;18.780;2022-09-09T17:17:38;10.90;;;4.30;;
71902;SDS011;59778;50.310;18.780;2022-09-09T17:33:00;12.73;;;3.67;;
71902;SDS011;59778;50.310;18.780;2022-09-09T17:48:21;19.00;;;8.10;;
71902;SDS011;59778;50.310;18.780;2022-09-09T18:03:43;41.40;;;21.77;;
71902;SDS011;59778;50.310;18.780;2022-09-09T18:19:07;47.87;;;26.77;;
71902;SDS011;59778;50.310;18.780;2022-09-09T18:34:33;54.10;;;28.07;;
71902;SDS011;59778;50.310;18.780;2022-09-09T18:49:55;53.57;;;28.97;;
71902;SDS011;59778;50.310;18.780;2022-09-09T19:05:16;56.13;;;30.13;;
71902;SDS011;59778;50.310;18.780;2022-09-09T19:20:37;51.60;;;27.77;;
71902;SDS011;59778;50.310;18.780;2022-09-09T19:35:59;49.40;;;26.33;;
71902;SDS011;59778;50.310;18.780;2022-09-09T19:51:23;44.83;;;24.00;;
71902;SDS011;59778;50.310;18.780;2022-09-09T20:06:45;62.53;;;32.60;;
71902;SDS011;59778;50.310;18.780;2022-09-09T20:22:06;41.27;;;22.03;;
71902;SDS011;59778;50.310;18.780;2022-09-09T20:37:28;33.77;;;18.73;;
71902;SDS011;59778;50.310;18.780;2022-09-09T20:52:51;27.43;;;15.73;;
71902;SDS011;59778;50.310;18.780;2022-09-09T21:08:12;30.90;;;17.23;;
71902;SDS011;59778;50.310;18.780;2022-09-09T21:23:33;18.10;;;10.07;;
71902;SDS011;59778;50.310;18.780;2022-09-09T21:38:55;19.90;;;10.07;;
71902;SDS011;59778;50.310;18.780;2022-09-09T21:54:18;16.87;;;9.83;;
71902;SDS011;59778;50.310;18.780;2022-09-09T22:09:39;19.70;;;9.97;;
71902;SDS011;59778;50.310;18.780;2022-09-09T22:25:00;18.70;;;9.73;;
71902;SDS011;59778;50.310;18.780;2022-09-09T22:40:22;23.70;;;11.57;;
71902;SDS011;59778;50.310;18.780;2022-09-09T22:55:53;20.70;;;10.50;;
71902;SDS011;59778;50.310;18.780;2022-09-09T23:11:19;23.40;;;12.67;;
71902;SDS011;59778;50.310;18.780;2022-09-09T23:26:41;25.07;;;12.17;;
71902;SDS011;59778;50.310;18.780;2022-09-09T23:42:05;19.17;;;9.43;;
71902;SDS011;59778;50.310;18.780;2022-09-09T23:57:27;14.13;;;6.70;;
